createdAt,value
2017-12-15T00:00:04.777Z,987.47
2017-12-15T00:00:45.347Z,987.47
2017-12-15T00:01:25.925Z,987.45
2017-12-15T00:02:06.515Z,987.46
2017-12-15T00:02:47.077Z,987.45
2017-12-15T00:03:27.643Z,987.44
2017-12-15T00:04:08.203Z,987.44
2017-12-15T00:04:48.769Z,987.43
2017-12-15T00:05:29.332Z,987.42
2017-12-15T00:06:09.925Z,987.45
2017-12-15T00:06:50.507Z,987.44
2017-12-15T00:07:31.102Z,987.44
2017-12-15T00:08:11.679Z,987.41
2017-12-15T00:08:52.261Z,987.42
2017-12-15T00:09:32.841Z,987.47
2017-12-15T00:10:13.403Z,987.47
2017-12-15T00:10:53.962Z,987.47
2017-12-15T00:11:34.525Z,987.46
2017-12-15T00:12:15.155Z,987.42
2017-12-15T00:12:55.755Z,987.48
2017-12-15T00:13:36.352Z,987.47
2017-12-15T00:14:16.921Z,987.48
2017-12-15T00:14:57.485Z,987.48
2017-12-15T00:15:38.048Z,987.48
2017-12-15T00:16:18.638Z,987.48
2017-12-15T00:16:59.262Z,987.49
2017-12-15T00:17:39.899Z,987.52
2017-12-15T00:18:20.404Z,987.51
2017-12-15T00:19:01.021Z,987.53
2017-12-15T00:19:41.614Z,987.53
2017-12-15T00:20:22.166Z,987.57
2017-12-15T00:21:03.195Z,987.54
2017-12-15T00:21:43.896Z,987.56
2017-12-15T00:22:24.466Z,987.55
2017-12-15T00:23:05.210Z,987.53
2017-12-15T00:23:45.776Z,987.51
2017-12-15T00:24:26.348Z,987.54
2017-12-15T00:25:06.900Z,987.5
2017-12-15T00:25:47.510Z,987.45
2017-12-15T00:26:28.168Z,987.51
2017-12-15T00:27:08.815Z,987.51
2017-12-15T00:27:49.328Z,987.52
2017-12-15T00:28:30.150Z,987.52
2017-12-15T00:29:10.737Z,987.48
2017-12-15T00:29:51.356Z,987.46
2017-12-15T00:30:31.954Z,987.51
2017-12-15T00:31:12.534Z,987.47
2017-12-15T00:31:53.106Z,987.46
2017-12-15T00:32:33.664Z,987.5
2017-12-15T00:33:14.255Z,987.49
2017-12-15T00:33:54.904Z,987.47
2017-12-15T00:34:35.450Z,987.49
2017-12-15T00:35:16.011Z,987.51
2017-12-15T00:35:56.590Z,987.49
2017-12-15T00:36:37.171Z,987.47
2017-12-15T00:37:17.738Z,987.51
2017-12-15T00:37:58.322Z,987.49
2017-12-15T00:38:38.903Z,987.54
2017-12-15T00:39:19.476Z,987.49
2017-12-15T00:40:00.075Z,987.47
2017-12-15T00:40:40.681Z,987.5
2017-12-15T00:41:21.255Z,987.45
2017-12-15T00:42:01.820Z,987.42
2017-12-15T00:42:42.422Z,987.42
2017-12-15T00:43:22.989Z,987.41
2017-12-15T00:44:03.577Z,987.44
2017-12-15T00:44:44.126Z,987.42
2017-12-15T00:45:24.688Z,987.4
2017-12-15T00:46:05.277Z,987.41
2017-12-15T00:46:45.868Z,987.43
2017-12-15T00:47:26.426Z,987.4
2017-12-15T00:48:06.987Z,987.41
2017-12-15T00:48:47.581Z,987.41
2017-12-15T00:49:28.145Z,987.39
2017-12-15T00:50:08.705Z,987.4
2017-12-15T00:50:49.278Z,987.41
2017-12-15T00:51:29.846Z,987.42
2017-12-15T00:52:10.405Z,987.45
2017-12-15T00:52:50.973Z,987.43
2017-12-15T00:53:31.542Z,987.42
2017-12-15T00:54:12.108Z,987.43
2017-12-15T00:54:52.669Z,987.44
2017-12-15T00:55:33.247Z,987.44
2017-12-15T00:56:13.826Z,987.44
2017-12-15T00:56:54.402Z,987.42
2017-12-15T00:57:34.994Z,987.41
2017-12-15T00:58:15.624Z,987.43
2017-12-15T00:58:56.172Z,987.41
2017-12-15T00:59:36.750Z,987.4
2017-12-15T01:00:17.330Z,987.4
2017-12-15T01:00:57.916Z,987.37
2017-12-15T01:01:38.468Z,987.38
2017-12-15T01:02:19.642Z,987.38
2017-12-15T01:02:59.942Z,987.32
2017-12-15T01:03:40.944Z,987.34
2017-12-15T01:04:21.562Z,987.32
2017-12-15T01:05:02.148Z,987.37
2017-12-15T01:05:42.708Z,987.36
2017-12-15T01:06:23.282Z,987.33
2017-12-15T01:07:03.866Z,987.33
2017-12-15T01:07:44.440Z,987.34
2017-12-15T01:08:25.008Z,987.35
2017-12-15T01:09:05.576Z,987.36
2017-12-15T01:09:46.149Z,987.36
2017-12-15T01:10:26.735Z,987.35
2017-12-15T01:11:07.298Z,987.38
2017-12-15T01:11:47.897Z,987.33
2017-12-15T01:12:28.453Z,987.35
2017-12-15T01:13:09.012Z,987.36
2017-12-15T01:13:49.581Z,987.33
2017-12-15T01:14:30.719Z,987.34
2017-12-15T01:15:11.448Z,987.43
2017-12-15T01:15:52.410Z,987.4
2017-12-15T01:16:33.224Z,987.39
2017-12-15T01:17:13.951Z,987.42
2017-12-15T01:17:54.508Z,987.43
2017-12-15T01:18:35.396Z,987.42
2017-12-15T01:19:16.132Z,987.38
2017-12-15T01:19:56.736Z,987.41
2017-12-15T01:20:37.299Z,987.39
2017-12-15T01:21:17.875Z,987.41
2017-12-15T01:21:58.443Z,987.38
2017-12-15T01:22:39.024Z,987.38
2017-12-15T01:23:19.595Z,987.43
2017-12-15T01:24:00.193Z,987.44
2017-12-15T01:24:40.757Z,987.44
2017-12-15T01:25:21.328Z,987.47
2017-12-15T01:26:01.892Z,987.47
2017-12-15T01:26:42.445Z,987.47
2017-12-15T01:27:23.041Z,987.48
2017-12-15T01:28:03.610Z,987.49
2017-12-15T01:28:44.176Z,987.53
2017-12-15T01:29:24.766Z,987.51
2017-12-15T01:30:05.364Z,987.52
2017-12-15T01:30:45.914Z,987.53
2017-12-15T01:31:26.518Z,987.51
2017-12-15T01:32:07.104Z,987.48
2017-12-15T01:32:47.709Z,987.49
2017-12-15T01:33:28.277Z,987.51
2017-12-15T01:34:08.889Z,987.52
2017-12-15T01:34:49.477Z,987.51
2017-12-15T01:35:30.050Z,987.47
2017-12-15T01:36:10.630Z,987.52
2017-12-15T01:36:51.180Z,987.52
2017-12-15T01:37:31.740Z,987.5
2017-12-15T01:38:12.310Z,987.5
2017-12-15T01:38:52.880Z,987.52
2017-12-15T01:39:33.433Z,987.51
2017-12-15T01:40:13.986Z,987.5
2017-12-15T01:40:54.558Z,987.51
2017-12-15T01:41:35.123Z,987.52
2017-12-15T01:42:15.720Z,987.57
2017-12-15T01:42:56.294Z,987.55
2017-12-15T01:43:36.875Z,987.54
2017-12-15T01:44:17.446Z,987.54
2017-12-15T01:44:58.015Z,987.56
2017-12-15T01:45:38.580Z,987.51
2017-12-15T01:46:19.144Z,987.52
2017-12-15T01:46:59.703Z,987.52
2017-12-15T01:47:40.289Z,987.45
2017-12-15T01:48:20.840Z,987.45
2017-12-15T01:49:01.427Z,987.46
2017-12-15T01:49:41.988Z,987.44
2017-12-15T01:50:22.562Z,987.4
2017-12-15T01:51:03.129Z,987.42
2017-12-15T01:51:43.696Z,987.39
2017-12-15T01:52:24.269Z,987.37
2017-12-15T01:53:04.830Z,987.39
2017-12-15T01:53:45.407Z,987.35
2017-12-15T01:54:25.977Z,987.33
2017-12-15T01:55:06.542Z,987.31
2017-12-15T01:55:47.107Z,987.31
2017-12-15T01:56:27.678Z,987.31
2017-12-15T01:57:08.261Z,987.32
2017-12-15T01:57:48.829Z,987.29
2017-12-15T01:58:29.398Z,987.31
2017-12-15T01:59:09.972Z,987.27
2017-12-15T01:59:50.559Z,987.26
2017-12-15T02:00:31.125Z,987.27
2017-12-15T02:01:11.715Z,987.27
2017-12-15T02:01:52.289Z,987.26
2017-12-15T02:02:32.891Z,987.23
2017-12-15T02:03:13.459Z,987.26
2017-12-15T02:03:54.051Z,987.27
2017-12-15T02:04:34.610Z,987.25
2017-12-15T02:05:15.192Z,987.23
2017-12-15T02:05:55.770Z,987.24
2017-12-15T02:06:36.323Z,987.22
2017-12-15T02:07:16.884Z,987.25
2017-12-15T02:07:57.440Z,987.21
2017-12-15T02:08:38.023Z,987.16
2017-12-15T02:09:18.579Z,987.19
2017-12-15T02:09:59.148Z,987.19
2017-12-15T02:10:39.720Z,987.19
2017-12-15T02:11:20.307Z,987.22
2017-12-15T02:12:00.877Z,987.19
2017-12-15T02:12:41.417Z,987.21
2017-12-15T02:13:21.999Z,987.19
2017-12-15T02:14:02.572Z,987.21
2017-12-15T02:14:43.138Z,987.2
2017-12-15T02:15:23.699Z,987.23
2017-12-15T02:16:04.280Z,987.21
2017-12-15T02:16:44.874Z,987.26
2017-12-15T02:17:25.420Z,987.24
2017-12-15T02:18:05.990Z,987.23
2017-12-15T02:18:46.567Z,987.28
2017-12-15T02:19:27.132Z,987.27
2017-12-15T02:20:07.712Z,987.33
2017-12-15T02:20:48.282Z,987.27
2017-12-15T02:21:28.842Z,987.33
2017-12-15T02:22:09.421Z,987.24
2017-12-15T02:22:49.982Z,987.3
2017-12-15T02:23:30.583Z,987.29
2017-12-15T02:24:11.173Z,987.27
2017-12-15T02:24:51.740Z,987.26
2017-12-15T02:25:32.331Z,987.31
2017-12-15T02:26:12.889Z,987.28
2017-12-15T02:26:53.470Z,987.3
2017-12-15T02:27:34.066Z,987.25
2017-12-15T02:28:14.592Z,987.27
2017-12-15T02:28:55.168Z,987.28
2017-12-15T02:29:35.741Z,987.27
2017-12-15T02:30:16.331Z,987.33
2017-12-15T02:30:56.952Z,987.29
2017-12-15T02:31:37.519Z,987.31
2017-12-15T02:32:18.081Z,987.33
2017-12-15T02:32:58.647Z,987.32
2017-12-15T02:33:39.213Z,987.35
2017-12-15T02:34:19.779Z,987.33
2017-12-15T02:35:00.346Z,987.34
2017-12-15T02:35:40.909Z,987.31
2017-12-15T02:36:21.527Z,987.35
2017-12-15T02:37:02.110Z,987.34
2017-12-15T02:37:42.660Z,987.36
2017-12-15T02:38:23.245Z,987.38
2017-12-15T02:39:03.809Z,987.34
2017-12-15T02:39:44.386Z,987.38
2017-12-15T02:40:24.969Z,987.37
2017-12-15T02:41:05.533Z,987.34
2017-12-15T02:41:46.127Z,987.33
2017-12-15T02:42:26.711Z,987.34
2017-12-15T02:43:07.290Z,987.31
2017-12-15T02:43:47.854Z,987.32
2017-12-15T02:44:28.416Z,987.29
2017-12-15T02:45:09.048Z,987.34
2017-12-15T02:45:49.602Z,987.27
2017-12-15T02:46:30.178Z,987.25
2017-12-15T02:47:10.782Z,987.26
2017-12-15T02:47:51.343Z,987.28
2017-12-15T02:48:31.910Z,987.26
2017-12-15T02:49:12.478Z,987.3
2017-12-15T02:49:53.054Z,987.29
2017-12-15T02:50:33.627Z,987.29
2017-12-15T02:51:14.184Z,987.29
2017-12-15T02:51:54.762Z,987.29
2017-12-15T02:52:35.330Z,987.22
2017-12-15T02:53:15.954Z,987.24
2017-12-15T02:53:56.537Z,987.21
2017-12-15T02:54:37.126Z,987.2
2017-12-15T02:55:17.732Z,987.21
2017-12-15T02:55:58.315Z,987.26
2017-12-15T02:56:38.874Z,987.21
2017-12-15T02:57:19.468Z,987.21
2017-12-15T02:58:00.026Z,987.28
2017-12-15T02:58:40.619Z,987.28
2017-12-15T02:59:21.222Z,987.3
2017-12-15T03:00:01.818Z,987.29
2017-12-15T03:00:42.407Z,987.28
2017-12-15T03:01:23.016Z,987.26
2017-12-15T03:02:03.592Z,987.23
2017-12-15T03:02:44.162Z,987.29
2017-12-15T03:03:24.729Z,987.25
2017-12-15T03:04:05.308Z,987.25
2017-12-15T03:04:45.867Z,987.27
2017-12-15T03:05:26.434Z,987.32
2017-12-15T03:06:06.997Z,987.3
2017-12-15T03:06:47.580Z,987.35
2017-12-15T03:07:28.138Z,987.36
2017-12-15T03:08:08.744Z,987.35
2017-12-15T03:08:49.304Z,987.34
2017-12-15T03:09:29.881Z,987.31
2017-12-15T03:10:10.453Z,987.32
2017-12-15T03:10:51.044Z,987.36
2017-12-15T03:11:31.612Z,987.31
2017-12-15T03:12:12.206Z,987.35
2017-12-15T03:12:52.811Z,987.34
2017-12-15T03:13:33.408Z,987.38
2017-12-15T03:14:13.996Z,987.31
2017-12-15T03:14:54.595Z,987.33
2017-12-15T03:15:35.162Z,987.31
2017-12-15T03:16:15.721Z,987.34
2017-12-15T03:16:56.315Z,987.36
2017-12-15T03:17:36.926Z,987.26
2017-12-15T03:18:17.521Z,987.32
2017-12-15T03:18:58.128Z,987.29
2017-12-15T03:19:38.695Z,987.29
2017-12-15T03:20:19.263Z,987.3
2017-12-15T03:20:59.894Z,987.27
2017-12-15T03:21:40.496Z,987.31
2017-12-15T03:22:21.118Z,987.31
2017-12-15T03:23:01.703Z,987.35
2017-12-15T03:23:42.324Z,987.34
2017-12-15T03:24:22.881Z,987.33
2017-12-15T03:25:03.487Z,987.31
2017-12-15T03:25:44.036Z,987.31
2017-12-15T03:26:24.658Z,987.3
2017-12-15T03:27:05.256Z,987.35
2017-12-15T03:27:45.796Z,987.29
2017-12-15T03:28:26.377Z,987.28
2017-12-15T03:29:06.948Z,987.32
2017-12-15T03:29:47.516Z,987.33
2017-12-15T03:30:28.079Z,987.33
2017-12-15T03:31:08.672Z,987.35
2017-12-15T03:31:49.244Z,987.37
2017-12-15T03:32:29.798Z,987.34
2017-12-15T03:33:10.378Z,987.31
2017-12-15T03:33:50.971Z,987.34
2017-12-15T03:34:31.540Z,987.29
2017-12-15T03:35:12.127Z,987.25
2017-12-15T03:35:52.673Z,987.27
2017-12-15T03:36:33.250Z,987.2
2017-12-15T03:37:13.808Z,987.28
2017-12-15T03:37:54.411Z,987.24
2017-12-15T03:38:34.969Z,987.22
2017-12-15T03:39:15.550Z,987.18
2017-12-15T03:39:56.111Z,987.18
2017-12-15T03:40:36.738Z,987.19
2017-12-15T03:41:17.383Z,987.17
2017-12-15T03:41:57.946Z,987.22
2017-12-15T03:42:38.525Z,987.18
2017-12-15T03:43:19.083Z,987.19
2017-12-15T03:43:59.664Z,987.19
2017-12-15T03:44:40.221Z,987.19
2017-12-15T03:45:20.798Z,987.15
2017-12-15T03:46:01.407Z,987.16
2017-12-15T03:46:41.976Z,987.18
2017-12-15T03:47:22.614Z,987.19
2017-12-15T03:48:03.375Z,987.18
2017-12-15T03:48:43.925Z,987.19
2017-12-15T03:49:24.491Z,987.18
2017-12-15T03:50:05.076Z,987.15
2017-12-15T03:50:45.641Z,987.17
2017-12-15T03:51:26.205Z,987.14
2017-12-15T03:52:06.777Z,987.17
2017-12-15T03:52:47.326Z,987.14
2017-12-15T03:53:27.897Z,987.16
2017-12-15T03:54:08.461Z,987.18
2017-12-15T03:54:49.023Z,987.17
2017-12-15T03:55:29.594Z,987.19
2017-12-15T03:56:10.160Z,987.18
2017-12-15T03:56:50.725Z,987.2
2017-12-15T03:57:31.333Z,987.18
2017-12-15T03:58:11.912Z,987.18
2017-12-15T03:58:52.479Z,987.22
2017-12-15T03:59:33.034Z,987.19
2017-12-15T04:00:13.654Z,987.19
2017-12-15T04:00:54.234Z,987.13
2017-12-15T04:01:34.825Z,987.16
2017-12-15T04:02:15.406Z,987.11
2017-12-15T04:02:55.997Z,987.13
2017-12-15T04:03:36.665Z,987.16
2017-12-15T04:04:17.253Z,987.15
2017-12-15T04:04:57.863Z,987.14
2017-12-15T04:05:38.403Z,987.16
2017-12-15T04:06:18.999Z,987.16
2017-12-15T04:06:59.544Z,987.12
2017-12-15T04:07:40.170Z,987.17
2017-12-15T04:08:20.750Z,987.14
2017-12-15T04:09:01.372Z,987.1
2017-12-15T04:09:41.935Z,987.15
2017-12-15T04:10:22.513Z,987.13
2017-12-15T04:11:03.106Z,987.09
2017-12-15T04:11:43.673Z,987.11
2017-12-15T04:12:24.273Z,987.09
2017-12-15T04:13:04.851Z,987.11
2017-12-15T04:13:45.419Z,987.15
2017-12-15T04:14:25.998Z,987.12
2017-12-15T04:15:06.574Z,987.12
2017-12-15T04:15:47.126Z,987.1
2017-12-15T04:16:27.677Z,987.12
2017-12-15T04:17:08.259Z,987.09
2017-12-15T04:17:48.829Z,987.13
2017-12-15T04:18:29.399Z,987.13
2017-12-15T04:19:09.981Z,987.14
2017-12-15T04:19:50.582Z,987.13
2017-12-15T04:20:31.147Z,987.15
2017-12-15T04:21:11.735Z,987.12
2017-12-15T04:21:52.320Z,987.1
2017-12-15T04:22:32.886Z,987.13
2017-12-15T04:23:13.454Z,987.07
2017-12-15T04:23:54.063Z,987.13
2017-12-15T04:24:34.624Z,987.13
2017-12-15T04:25:15.205Z,987.15
2017-12-15T04:25:55.804Z,987.13
2017-12-15T04:26:36.378Z,987.13
2017-12-15T04:27:16.956Z,987.12
2017-12-15T04:27:57.573Z,987.11
2017-12-15T04:28:38.135Z,987.12
2017-12-15T04:29:18.703Z,987.11
2017-12-15T04:29:59.272Z,987.1
2017-12-15T04:30:40.069Z,987.09
2017-12-15T04:31:20.659Z,987.06
2017-12-15T04:32:01.269Z,987.15
2017-12-15T04:32:41.819Z,987.09
2017-12-15T04:33:22.451Z,987.06
2017-12-15T04:34:03.018Z,987.09
2017-12-15T04:34:43.617Z,987.04
2017-12-15T04:35:24.187Z,987.04
2017-12-15T04:36:04.761Z,987.05
2017-12-15T04:36:45.316Z,987.02
2017-12-15T04:37:25.879Z,987.03
2017-12-15T04:38:06.456Z,987.04
2017-12-15T04:38:47.029Z,987.04
2017-12-15T04:39:27.590Z,987.03
2017-12-15T04:40:08.171Z,987.03
2017-12-15T04:40:48.780Z,987.04
2017-12-15T04:41:29.360Z,987.08
2017-12-15T04:42:10.017Z,987.06
2017-12-15T04:42:50.561Z,987.09
2017-12-15T04:43:31.125Z,987.05
2017-12-15T04:44:11.693Z,987.03
2017-12-15T04:44:52.282Z,987.08
2017-12-15T04:45:32.862Z,987.03
2017-12-15T04:46:13.456Z,987.06
2017-12-15T04:46:54.022Z,987.04
2017-12-15T04:47:34.640Z,987.08
2017-12-15T04:48:15.211Z,987.1
2017-12-15T04:48:55.765Z,987.06
2017-12-15T04:49:36.323Z,987.05
2017-12-15T04:50:16.908Z,987.08
2017-12-15T04:50:57.476Z,987.12
2017-12-15T04:51:38.033Z,987.09
2017-12-15T04:52:18.629Z,987.07
2017-12-15T04:54:47.288Z,987.09
2017-12-15T04:55:27.861Z,987.12
2017-12-15T04:56:08.447Z,987.1
2017-12-15T04:56:49.006Z,987.14
2017-12-15T04:57:29.595Z,987.14
2017-12-15T04:58:10.157Z,987.15
2017-12-15T04:58:50.722Z,987.12
2017-12-15T04:59:31.296Z,987.18
2017-12-15T05:00:11.868Z,987.18
2017-12-15T05:00:52.431Z,987.13
2017-12-15T05:01:33.013Z,987.17
2017-12-15T05:02:13.581Z,987.12
2017-12-15T05:02:54.154Z,987.12
2017-12-15T05:03:34.705Z,987.13
2017-12-15T05:04:15.270Z,987.1
2017-12-15T05:04:55.840Z,987.1
2017-12-15T05:05:36.432Z,987.14
2017-12-15T05:06:16.991Z,987.16
2017-12-15T05:06:57.551Z,987.16
2017-12-15T05:07:38.125Z,987.17
2017-12-15T05:08:18.696Z,987.17
2017-12-15T05:08:59.260Z,987.13
2017-12-15T05:09:39.836Z,987.1
2017-12-15T05:10:20.425Z,987.09
2017-12-15T05:11:01.008Z,987.07
2017-12-15T05:11:41.581Z,987.12
2017-12-15T05:12:22.200Z,987.11
2017-12-15T05:13:02.731Z,987.17
2017-12-15T05:13:43.306Z,987.16
2017-12-15T05:14:23.871Z,987.19
2017-12-15T05:15:04.415Z,987.22
2017-12-15T05:15:44.992Z,987.21
2017-12-15T05:16:25.604Z,987.18
2017-12-15T05:17:06.165Z,987.22
2017-12-15T05:17:47.799Z,987.15
2017-12-15T05:18:28.388Z,987.15
2017-12-15T05:19:08.996Z,987.16
2017-12-15T05:19:49.559Z,987.16
2017-12-15T05:20:30.143Z,987.12
2017-12-15T05:21:10.701Z,987.15
2017-12-15T05:21:51.299Z,987.12
2017-12-15T05:22:31.884Z,987.14
2017-12-15T05:23:12.435Z,987.21
2017-12-15T05:23:52.998Z,987.18
2017-12-15T05:24:33.599Z,987.19
2017-12-15T05:25:14.151Z,987.2
2017-12-15T05:25:54.729Z,987.15
2017-12-15T05:26:35.289Z,987.2
2017-12-15T05:27:15.862Z,987.16
2017-12-15T05:27:56.470Z,987.21
2017-12-15T05:28:37.095Z,987.16
2017-12-15T05:29:17.698Z,987.14
2017-12-15T05:29:58.250Z,987.18
2017-12-15T05:30:38.829Z,987.2
2017-12-15T05:31:19.406Z,987.17
2017-12-15T05:31:59.978Z,987.23
2017-12-15T05:32:40.548Z,987.25
2017-12-15T05:33:21.133Z,987.25
2017-12-15T05:34:01.676Z,987.18
2017-12-15T05:34:42.263Z,987.23
2017-12-15T05:35:22.821Z,987.15
2017-12-15T05:36:03.414Z,987.18
2017-12-15T05:36:43.993Z,987.19
2017-12-15T05:37:24.602Z,987.18
2017-12-15T05:38:05.188Z,987.18
2017-12-15T05:38:45.794Z,987.15
2017-12-15T05:39:26.359Z,987.17
2017-12-15T05:40:06.914Z,987.21
2017-12-15T05:40:47.487Z,987.18
2017-12-15T05:41:28.072Z,987.25
2017-12-15T05:42:08.640Z,987.26
2017-12-15T05:42:49.228Z,987.25
2017-12-15T05:43:29.821Z,987.24
2017-12-15T05:44:10.380Z,987.24
2017-12-15T05:44:50.987Z,987.28
2017-12-15T05:45:31.568Z,987.22
2017-12-15T05:46:12.143Z,987.27
2017-12-15T05:46:52.723Z,987.28
2017-12-15T05:47:33.283Z,987.31
2017-12-15T05:48:13.889Z,987.29
2017-12-15T05:48:54.501Z,987.37
2017-12-15T05:49:35.078Z,987.34
2017-12-15T05:50:15.648Z,987.37
2017-12-15T05:50:56.235Z,987.37
2017-12-15T05:51:36.808Z,987.37
2017-12-15T05:52:17.488Z,987.39
2017-12-15T05:52:58.354Z,987.36
2017-12-15T05:53:39.155Z,987.34
2017-12-15T05:54:19.754Z,987.32
2017-12-15T05:55:00.331Z,987.35
2017-12-15T05:55:40.905Z,987.32
2017-12-15T05:56:21.468Z,987.34
2017-12-15T05:57:02.052Z,987.33
2017-12-15T05:57:42.621Z,987.28
2017-12-15T05:58:23.183Z,987.32
2017-12-15T05:59:03.805Z,987.32
2017-12-15T05:59:44.368Z,987.28
2017-12-15T06:00:24.934Z,987.28
2017-12-15T06:01:05.510Z,987.29
2017-12-15T06:01:46.103Z,987.3
2017-12-15T06:02:26.692Z,987.29
2017-12-15T06:03:07.333Z,987.32
2017-12-15T06:03:47.919Z,987.31
2017-12-15T06:04:28.479Z,987.35
2017-12-15T06:05:09.059Z,987.33
2017-12-15T06:05:49.653Z,987.35
2017-12-15T06:06:30.219Z,987.33
2017-12-15T06:07:10.779Z,987.34
2017-12-15T06:07:51.350Z,987.37
2017-12-15T06:08:31.934Z,987.37
2017-12-15T06:09:12.489Z,987.4
2017-12-15T06:09:53.050Z,987.33
2017-12-15T06:10:33.627Z,987.39
2017-12-15T06:11:14.183Z,987.43
2017-12-15T06:11:54.732Z,987.43
2017-12-15T06:12:35.290Z,987.43
2017-12-15T06:13:15.870Z,987.45
2017-12-15T06:13:56.455Z,987.41
2017-12-15T06:14:37.032Z,987.43
2017-12-15T06:15:17.596Z,987.45
2017-12-15T06:15:58.170Z,987.52
2017-12-15T06:16:38.755Z,987.5
2017-12-15T06:17:19.376Z,987.52
2017-12-15T06:17:59.963Z,987.59
2017-12-15T06:18:40.533Z,987.53
2017-12-15T06:19:21.133Z,987.56
2017-12-15T06:20:01.707Z,987.51
2017-12-15T06:20:42.267Z,987.51
2017-12-15T06:21:22.823Z,987.51
2017-12-15T06:22:03.385Z,987.57
2017-12-15T06:22:43.964Z,987.52
2017-12-15T06:23:24.562Z,987.53
2017-12-15T06:24:05.132Z,987.55
2017-12-15T06:24:45.685Z,987.54
2017-12-15T06:25:26.258Z,987.59
2017-12-15T06:26:06.840Z,987.6
2017-12-15T06:26:47.413Z,987.58
2017-12-15T06:27:27.974Z,987.58
2017-12-15T06:28:08.543Z,987.54
2017-12-15T06:28:49.116Z,987.61
2017-12-15T06:29:29.689Z,987.55
2017-12-15T06:30:10.460Z,987.61
2017-12-15T06:30:51.373Z,987.58
2017-12-15T06:31:31.947Z,987.62
2017-12-15T06:32:12.506Z,987.62
2017-12-15T06:32:53.100Z,987.59
2017-12-15T06:33:33.679Z,987.62
2017-12-15T06:34:14.237Z,987.57
2017-12-15T06:34:54.813Z,987.6
2017-12-15T06:35:35.383Z,987.58
2017-12-15T06:36:15.968Z,987.59
2017-12-15T06:36:56.539Z,987.63
2017-12-15T06:37:37.527Z,987.66
2017-12-15T06:38:18.092Z,987.59
2017-12-15T06:38:58.662Z,987.61
2017-12-15T06:39:39.289Z,987.6
2017-12-15T06:40:19.879Z,987.6
2017-12-15T06:41:02.138Z,987.63
2017-12-15T06:41:42.945Z,987.57
2017-12-15T06:42:23.529Z,987.61
2017-12-15T06:43:04.100Z,987.61
2017-12-15T06:43:44.647Z,987.58
2017-12-15T06:44:25.225Z,987.58
2017-12-15T06:45:05.810Z,987.56
2017-12-15T06:45:46.369Z,987.59
2017-12-15T06:46:26.948Z,987.6
2017-12-15T06:47:07.527Z,987.62
2017-12-15T06:47:48.083Z,987.6
2017-12-15T06:48:28.626Z,987.66
2017-12-15T06:49:09.213Z,987.63
2017-12-15T06:49:49.793Z,987.63
2017-12-15T06:50:30.364Z,987.61
2017-12-15T06:51:10.925Z,987.62
2017-12-15T06:51:51.504Z,987.61
2017-12-15T06:52:32.060Z,987.58
2017-12-15T06:53:12.624Z,987.62
2017-12-15T06:53:53.182Z,987.62
2017-12-15T06:54:33.761Z,987.65
2017-12-15T06:55:14.376Z,987.65
2017-12-15T06:55:54.945Z,987.68
2017-12-15T06:56:35.519Z,987.67
2017-12-15T06:57:16.081Z,987.7
2017-12-15T06:57:56.646Z,987.67
2017-12-15T06:58:37.211Z,987.74
2017-12-15T06:59:17.825Z,987.76
2017-12-15T06:59:58.370Z,987.77
2017-12-15T07:00:38.923Z,987.77
2017-12-15T07:01:19.498Z,987.82
2017-12-15T07:02:00.082Z,987.83
2017-12-15T07:02:40.652Z,987.81
2017-12-15T07:03:21.217Z,987.8
2017-12-15T07:04:01.775Z,987.82
2017-12-15T07:04:42.423Z,987.79
2017-12-15T07:05:23.020Z,987.78
2017-12-15T07:06:03.590Z,987.8
2017-12-15T07:06:44.185Z,987.81
2017-12-15T07:07:24.729Z,987.79
2017-12-15T07:08:05.282Z,987.82
2017-12-15T07:08:45.867Z,987.83
2017-12-15T07:09:26.433Z,987.84
2017-12-15T07:10:06.996Z,987.89
2017-12-15T07:10:47.691Z,987.87
2017-12-15T07:11:28.255Z,987.92
2017-12-15T07:12:08.839Z,987.96
2017-12-15T07:12:49.432Z,987.98
2017-12-15T07:13:29.994Z,988
2017-12-15T07:14:10.566Z,988
2017-12-15T07:14:51.170Z,988.03
2017-12-15T07:15:31.727Z,988.04
2017-12-15T07:16:12.280Z,988.07
2017-12-15T07:16:52.837Z,988.05
2017-12-15T07:17:33.496Z,988.06
2017-12-15T07:18:14.057Z,988.06
2017-12-15T07:18:54.613Z,988.06
2017-12-15T07:19:35.172Z,988.07
2017-12-15T07:20:15.752Z,988.05
2017-12-15T07:20:56.339Z,987.97
2017-12-15T07:21:36.927Z,988.03
2017-12-15T07:22:17.479Z,988.03
2017-12-15T07:22:58.049Z,988
2017-12-15T07:23:38.685Z,988.03
2017-12-15T07:24:19.251Z,988
2017-12-15T07:24:59.810Z,988.02
2017-12-15T07:25:40.396Z,987.98
2017-12-15T07:26:21.030Z,987.97
2017-12-15T07:27:01.603Z,987.93
2017-12-15T07:27:42.158Z,987.95
2017-12-15T07:28:22.715Z,987.96
2017-12-15T07:29:03.313Z,987.96
2017-12-15T07:29:43.899Z,987.92
2017-12-15T07:30:24.777Z,987.98
2017-12-15T07:31:05.517Z,987.96
2017-12-15T07:31:46.071Z,987.92
2017-12-15T07:32:26.628Z,987.94
2017-12-15T07:33:07.215Z,987.95
2017-12-15T07:33:47.771Z,987.94
2017-12-15T07:34:28.347Z,987.92
2017-12-15T07:35:08.981Z,987.94
2017-12-15T07:35:49.520Z,987.93
2017-12-15T07:36:30.127Z,988
2017-12-15T07:37:10.693Z,987.97
2017-12-15T07:37:51.278Z,987.96
2017-12-15T07:38:31.839Z,987.99
2017-12-15T07:39:12.417Z,987.98
2017-12-15T07:39:52.987Z,987.99
2017-12-15T07:40:33.541Z,988
2017-12-15T07:41:14.142Z,987.98
2017-12-15T07:41:54.757Z,988.04
2017-12-15T07:42:35.340Z,988.04
2017-12-15T07:43:15.916Z,988.07
2017-12-15T07:43:56.495Z,988.08
2017-12-15T07:44:37.072Z,988.04
2017-12-15T07:45:17.648Z,988
2017-12-15T07:45:58.229Z,988.03
2017-12-15T07:46:38.810Z,988
2017-12-15T07:47:19.379Z,988.02
2017-12-15T07:47:59.956Z,988.01
2017-12-15T07:48:40.537Z,988.02
2017-12-15T07:49:21.123Z,988.05
2017-12-15T07:50:01.693Z,988.07
2017-12-15T07:50:42.277Z,988.11
2017-12-15T07:51:22.840Z,988.07
2017-12-15T07:52:03.404Z,988.08
2017-12-15T07:52:44.054Z,988.14
2017-12-15T07:53:24.612Z,988.12
2017-12-15T07:54:05.223Z,988.13
2017-12-15T07:54:45.771Z,988.15
2017-12-15T07:55:26.361Z,988.17
2017-12-15T07:56:06.921Z,988.17
2017-12-15T07:56:47.499Z,988.16
2017-12-15T07:57:28.072Z,988.18
2017-12-15T07:58:08.633Z,988.13
2017-12-15T07:58:49.247Z,988.18
2017-12-15T07:59:29.810Z,988.17
2017-12-15T08:00:10.381Z,988.16
2017-12-15T08:00:50.932Z,988.23
2017-12-15T08:01:31.498Z,988.2
2017-12-15T08:02:12.070Z,988.22
2017-12-15T08:02:52.621Z,988.22
2017-12-15T08:03:33.208Z,988.24
2017-12-15T08:04:13.763Z,988.26
2017-12-15T08:04:54.344Z,988.26
2017-12-15T08:05:34.943Z,988.26
2017-12-15T08:06:15.500Z,988.28
2017-12-15T08:06:56.056Z,988.29
2017-12-15T08:07:36.627Z,988.26
2017-12-15T08:08:17.205Z,988.24
2017-12-15T08:08:57.786Z,988.25
2017-12-15T08:09:38.357Z,988.26
2017-12-15T08:10:18.925Z,988.26
2017-12-15T08:10:59.482Z,988.26
2017-12-15T08:11:40.052Z,988.23
2017-12-15T08:12:20.627Z,988.18
2017-12-15T08:13:01.231Z,988.18
2017-12-15T08:13:41.776Z,988.21
2017-12-15T08:14:22.377Z,988.24
2017-12-15T08:15:02.942Z,988.22
2017-12-15T08:15:43.532Z,988.25
2017-12-15T08:16:24.145Z,988.23
2017-12-15T08:17:04.673Z,988.2
2017-12-15T08:17:45.244Z,988.24
2017-12-15T08:18:25.844Z,988.23
2017-12-15T08:19:06.403Z,988.26
2017-12-15T08:19:46.957Z,988.24
2017-12-15T08:20:27.545Z,988.23
2017-12-15T08:21:08.108Z,988.3
2017-12-15T08:21:48.712Z,988.25
2017-12-15T08:22:29.280Z,988.29
2017-12-15T08:23:09.909Z,988.27
2017-12-15T08:23:50.475Z,988.3
2017-12-15T08:24:31.072Z,988.27
2017-12-15T08:25:11.669Z,988.33
2017-12-15T08:25:52.255Z,988.34
2017-12-15T08:26:32.871Z,988.34
2017-12-15T08:27:13.432Z,988.36
2017-12-15T08:27:54.004Z,988.38
2017-12-15T08:28:34.569Z,988.41
2017-12-15T08:29:15.128Z,988.41